Time;durP1;ratioP1;P1;durP2;ratioP2;P2;SDS_P1;SDS_P2;PMS_P1;PMS_P2;Temp;Humidity;BMP_temperature;BMP_pressure;BME280_temperature;BME280_humidity;BME280_pressure;Samples;Min_cycle;Max_cycle;Signal;HPM_P1;HPM_P2
2022/08/13 00:00:09;;;;;;;6.22;2.53;;;;;;;18.14;72.62;100524.09;4908445;28;20097;-66
2022/08/13 00:02:36;;;;;;;9.05;3.05;;;;;;;18.16;72.65;100531.94;4906600;28;20031;-67
2022/08/13 00:05:01;;;;;;;4.60;2.10;;;;;;;18.15;73.16;100541.72;4910689;28;20027;-67
2022/08/13 00:07:27;;;;;;;4.43;2.42;;;;;;;17.78;73.53;100500.38;4938042;28;20458;-67
2022/08/13 00:09:54;;;;;;;5.95;2.92;;;;;;;17.88;73.86;100516.50;4951812;28;20144;-67
2022/08/13 00:15:16;;;;;;;7.63;2.80;;;;;;;18.14;74.63;100545.38;4953198;28;20046;-67
2022/08/13 00:17:43;;;;;;;5.37;2.70;;;;;;;18.14;75.09;100540.06;4948807;29;20040;-67
2022/08/13 00:20:10;;;;;;;6.18;2.67;;;;;;;18.11;75.89;100542.97;4950090;28;20761;-67
2022/08/13 00:22:36;;;;;;;3.85;2.70;;;;;;;18.06;76.29;100542.47;4951411;28;20024;-67
2022/08/13 00:25:05;;;;;;;5.93;2.95;;;;;;;18.01;76.83;100539.34;4946697;28;20028;-67
2022/08/13 00:27:30;;;;;;;9.13;2.50;;;;;;;17.97;77.30;100545.00;4940036;28;20027;-67
2022/08/13 00:29:56;;;;;;;3.22;2.17;;;;;;;17.96;78.20;100540.66;4951409;28;20038;-67
2022/08/13 00:32:26;;;;;;;8.40;2.83;;;;;;;17.97;79.53;100551.19;4951475;29;20027;-67
2022/08/13 00:34:51;;;;;;;4.65;2.75;;;;;;;18.00;82.69;100547.41;4950958;28;20035;-67
2022/08/13 00:37:17;;;;;;;4.95;2.42;;;;;;;17.88;82.29;100531.44;4939667;28;20458;-67
2022/08/13 00:39:42;;;;;;;3.97;2.47;;;;;;;17.85;83.12;100538.81;4951371;28;20393;-67
2022/08/13 00:42:08;;;;;;;3.53;2.38;;;;;;;17.83;84.77;100548.75;4950131;28;20031;-67
2022/08/13 00:44:33;;;;;;;4.47;2.58;;;;;;;17.82;87.15;100544.38;4949852;28;20414;-67
2022/08/13 00:49:47;;;;;;;;;;;;;;;17.78;88.33;100540.25;4953406;28;20050;-67
2022/08/13 00:52:12;;;;;;;5.05;2.80;;;;;;;17.69;90.45;100519.72;4943812;28;20411;-68
2022/08/13 00:54:40;;;;;;;3.63;2.58;;;;;;;17.62;90.29;100521.16;4953039;28;20071;-67
2022/08/13 00:57:07;;;;;;;4.10;2.85;;;;;;;17.61;91.12;100538.06;4954435;28;20038;-67
2022/08/13 00:59:33;;;;;;;5.82;3.30;;;;;;;17.38;89.90;100510.56;4954015;29;20029;-67
2022/08/13 01:01:58;;;;;;;4.53;2.85;;;;;;;17.46;89.23;100541.88;4954126;28;20066;-67
2022/08/13 01:04:24;;;;;;;5.07;2.58;;;;;;;17.38;88.97;100545.97;4936393;28;20122;-67
2022/08/13 01:06:50;;;;;;;4.85;3.30;;;;;;;17.28;89.82;100537.00;4953756;28;20023;-67
2022/08/13 01:09:16;;;;;;;5.03;3.28;;;;;;;17.20;90.89;100528.75;4936716;28;20027;-67
2022/08/13 01:11:41;;;;;;;7.10;3.25;;;;;;;17.27;92.30;100537.94;4954126;28;20023;-67
2022/08/13 01:14:08;;;;;;;6.43;3.10;;;;;;;17.25;93.07;100539.03;4955994;28;20512;-67
2022/08/13 01:16:36;;;;;;;4.47;2.80;;;;;;;17.29;94.33;100546.66;4953894;29;20476;-68
2022/08/13 01:19:04;;;;;;;7.18;3.40;;;;;;;16.92;94.62;100489.31;4953742;28;20050;-68
2022/08/13 01:21:39;;;;;;;5.45;2.85;;;;;;;17.23;94.11;100544.47;4951864;28;20035;-67
2022/08/13 01:24:06;;;;;;;4.95;3.28;;;;;;;17.18;93.46;100549.28;4953694;28;20039;-67
2022/08/13 01:26:32;;;;;;;5.07;3.05;;;;;;;17.07;92.79;100538.59;4924154;28;20031;-67
2022/08/13 01:28:58;;;;;;;6.18;3.10;;;;;;;16.77;93.06;100506.38;4954216;28;20110;-68
2022/08/13 01:31:24;;;;;;;7.30;3.60;;;;;;;16.87;94.26;100544.53;4954201;28;20381;-68
2022/08/13 01:33:59;;;;;;;5.10;2.88;;;;;;;16.68;94.25;100522.97;4945324;28;20031;-67
2022/08/13 01:36:28;;;;;;;5.78;3.50;;;;;;;16.79;94.31;100547.78;4953633;29;20543;-67
2022/08/13 01:38:54;;;;;;;13.48;3.65;;;;;;;16.79;94.81;100546.94;4952047;28;20027;-67
2022/08/13 01:41:19;;;;;;;4.53;3.25;;;;;;;16.77;93.75;100548.84;4953931;28;20114;-67
2022/08/13 01:43:45;;;;;;;5.00;3.55;;;;;;;16.67;92.93;100537.19;4953497;28;20362;-67
2022/08/13 01:46:11;;;;;;;6.15;3.92;;;;;;;16.64;93.87;100548.03;4953355;28;20548;-67
2022/08/13 01:51:27;;;;;;;5.93;3.78;;;;;;;16.49;94.91;100541.19;4954338;28;20054;-67
2022/08/13 01:53:55;;;;;;;8.15;4.20;;;;;;;16.44;94.70;100552.13;4951676;28;20488;-67
2022/08/13 01:56:22;;;;;;;5.13;3.55;;;;;;;16.34;96.12;100541.31;4939236;28;20027;-67
2022/08/13 01:58:53;;;;;;;6.75;3.75;;;;;;;16.14;97.57;100515.38;4956101;28;20065;-67
2022/08/13 02:01:24;;;;;;;6.30;3.60;;;;;;;16.30;98.44;100537.19;4943848;28;20053;-68
2022/08/13 02:03:51;;;;;;;6.40;3.80;;;;;;;16.31;99.57;100541.53;4952463;28;20041;-68
2022/08/13 02:06:25;;;;;;;6.15;3.72;;;;;;;16.36;100.00;100547.34;4939363;28;20550;-68
2022/08/13 02:08:59;;;;;;;7.53;4.50;;;;;;;16.32;100.00;100532.59;4953475;28;20080;-67
2022/08/13 02:11:25;;;;;;;7.13;4.03;;;;;;;16.44;100.00;100541.50;4923309;28;20145;-67
2022/08/13 02:13:55;;;;;;;6.65;3.55;;;;;;;16.43;97.82;100538.94;4952761;28;20032;-68
2022/08/13 02:16:21;;;;;;;6.88;3.90;;;;;;;16.45;96.98;100548.50;4948450;29;20051;-67
2022/08/13 02:18:46;;;;;;;6.95;4.10;;;;;;;16.50;97.33;100537.53;4944140;28;20464;-67
2022/08/13 02:21:12;;;;;;;7.40;4.10;;;;;;;16.41;96.86;100514.34;4950829;28;20031;-67
2022/08/13 02:23:38;;;;;;;10.73;3.30;;;;;;;16.55;96.55;100532.78;4940419;28;20114;-67
2022/08/13 02:26:05;;;;;;;6.63;3.40;;;;;;;16.65;96.19;100536.47;4938741;29;20041;-67
2022/08/13 02:28:33;;;;;;;6.28;4.00;;;;;;;16.70;95.34;100535.16;4943289;28;20034;-67
2022/08/13 02:30:58;;;;;;;6.03;3.97;;;;;;;16.82;94.21;100536.09;4952758;28;20096;-67
2022/08/13 02:33:25;;;;;;;7.78;4.15;;;;;;;16.89;92.72;100537.34;4952322;28;20031;-67
2022/08/13 02:35:50;;;;;;;6.00;4.20;;;;;;;16.92;91.73;100528.28;4941916;28;20032;-67
2022/08/13 02:38:16;;;;;;;5.43;3.58;;;;;;;17.03;91.65;100542.47;4946783;28;20027;-68
2022/08/13 02:43:27;;;;;;;6.82;4.28;;;;;;;16.99;91.09;100533.03;4940075;28;20042;-67
2022/08/13 02:45:53;;;;;;;6.30;4.30;;;;;;;17.09;90.16;100543.81;4967751;28;20031;-67
2022/08/13 02:48:24;;;;;;;6.10;3.97;;;;;;;17.13;89.60;100543.47;4952189;28;20035;-67
2022/08/13 02:50:50;;;;;;;5.00;3.63;;;;;;;17.13;89.44;100546.13;4949838;28;20036;-68
2022/08/13 02:53:19;;;;;;;7.32;3.83;;;;;;;17.13;89.06;100540.81;4935902;28;20032;-67
2022/08/13 02:55:45;;;;;;;11.20;4.43;;;;;;;17.15;89.41;100536.22;4939932;28;20488;-67
2022/08/13 02:58:10;;;;;;;8.45;4.55;;;;;;;17.11;89.67;100540.06;4939722;28;20023;-67
2022/08/13 03:00:36;;;;;;;6.85;3.85;;;;;;;17.09;91.10;100527.88;4948232;28;20055;-68
2022/08/13 03:03:05;;;;;;;9.68;4.43;;;;;;;17.03;92.02;100534.50;4950850;28;20035;-67
2022/08/13 03:05:31;;;;;;;7.00;4.25;;;;;;;17.03;94.44;100545.13;4947173;28;20043;-67
2022/08/13 03:07:57;;;;;;;6.28;4.28;;;;;;;16.93;96.22;100538.81;4951630;28;20107;-68
2022/08/13 03:10:25;;;;;;;9.73;4.60;;;;;;;16.77;95.41;100538.22;4950891;28;20023;-68
2022/08/13 03:12:58;;;;;;;7.20;4.65;;;;;;;16.54;97.12;100537.22;4951935;28;20385;-68
2022/08/13 03:15:24;;;;;;;6.55;4.13;;;;;;;16.30;99.62;100518.63;4932880;29;20046;-67
2022/08/13 03:17:49;;;;;;;6.30;4.18;;;;;;;16.30;100.00;100545.13;5017594;28;20469;-68
2022/08/13 03:20:16;;;;;;;5.40;4.03;;;;;;;16.28;100.00;100547.06;4951807;28;20020;-68
2022/08/13 03:22:48;;;;;;;5.55;4.13;;;;;;;16.17;100.00;100539.03;4952224;28;20043;-68
2022/08/13 03:25:15;;;;;;;6.43;4.35;;;;;;;16.13;100.00;100542.84;4939104;28;20023;-67
2022/08/13 03:27:40;;;;;;;6.28;4.25;;;;;;;16.05;100.00;100539.91;4952169;28;20038;-67
2022/08/13 03:30:06;;;;;;;7.15;4.75;;;;;;;15.98;100.00;100543.94;4951754;28;20019;-68
2022/08/13 03:32:38;;;;;;;5.72;4.10;;;;;;;15.97;100.00;100547.53;4951531;28;20027;-68
2022/08/13 03:35:04;;;;;;;5.47;4.22;;;;;;;15.70;100.00;100507.06;4951674;28;20453;-68
2022/08/13 03:37:29;;;;;;;5.72;3.80;;;;;;;15.82;100.00;100546.78;4936968;28;20134;-67
2022/08/13 03:39:54;;;;;;;6.50;4.05;;;;;;;15.73;100.00;100551.88;4941526;28;20039;-68
2022/08/13 03:42:20;;;;;;;9.07;4.95;;;;;;;15.65;100.00;100551.53;4951989;29;20550;-67
2022/08/13 03:44:45;;;;;;;6.32;5.07;;;;;;;15.61;100.00;100550.09;4949559;28;20449;-67
2022/08/13 03:47:13;;;;;;;7.70;4.40;;;;;;;15.57;100.00;100538.00;4951986;29;20031;-68
2022/08/13 03:49:39;;;;;;;7.28;4.82;;;;;;;15.52;100.00;100529.50;4951391;29;20028;-67
2022/08/13 03:52:04;;;;;;;5.97;4.40;;;;;;;15.54;100.00;100548.81;4952050;28;20023;-67
2022/08/13 03:54:30;;;;;;;6.13;4.20;;;;;;;15.46;100.00;100548.44;4951526;28;20035;-67
2022/08/13 03:56:55;;;;;;;4.15;3.33;;;;;;;15.41;100.00;100542.63;4948689;29;20028;-67
2022/08/13 03:59:21;;;;;;;10.88;4.30;;;;;;;15.41;100.00;100542.63;4942798;28;20462;-67
2022/08/13 04:01:49;;;;;;;6.22;4.63;;;;;;;15.41;100.00;100548.75;4936509;28;20393;-67
2022/08/13 04:04:16;;;;;;;6.32;4.45;;;;;;;15.36;100.00;100556.16;4950926;29;20031;-67
2022/08/13 04:06:41;;;;;;;5.88;3.60;;;;;;;15.35;100.00;100550.00;4951410;28;20035;-67
2022/08/13 04:09:06;;;;;;;9.90;4.30;;;;;;;15.25;100.00;100553.38;4949463;29;20055;-67
2022/08/13 04:11:32;;;;;;;9.80;4.03;;;;;;;15.12;100.00;100548.06;4943264;28;20485;-67
2022/08/13 04:13:57;;;;;;;5.68;3.92;;;;;;;15.11;100.00;100558.72;4951622;28;20161;-67
2022/08/13 04:16:24;;;;;;;6.00;4.20;;;;;;;15.01;100.00;100553.19;4951153;28;20106;-68
2022/08/13 04:18:50;;;;;;;6.43;3.95;;;;;;;15.05;100.00;100554.69;4940603;28;20074;-67
2022/08/13 04:21:18;;;;;;;7.18;4.35;;;;;;;14.82;100.00;100523.63;4948205;28;20031;-68
2022/08/13 04:23:46;;;;;;;6.88;4.18;;;;;;;15.01;100.00;100558.50;4954410;29;20035;-67
2022/08/13 04:26:16;;;;;;;8.63;3.63;;;;;;;15.01;100.00;100571.72;4953738;28;20042;-67
2022/08/13 04:28:42;;;;;;;4.82;3.83;;;;;;;14.93;100.00;100558.16;4954198;28;20035;-68
2022/08/13 04:31:11;;;;;;;9.27;4.32;;;;;;;14.90;100.00;100561.03;4949447;28;20038;-68
2022/08/13 04:33:38;;;;;;;7.78;4.18;;;;;;;14.81;100.00;100545.72;4946234;28;20500;-67
2022/08/13 04:36:04;;;;;;;7.07;4.47;;;;;;;14.87;100.00;100569.13;4961596;28;20045;-68
2022/08/13 04:38:30;;;;;;;12.68;4.55;;;;;;;14.93;100.00;100579.34;4952615;28;20424;-67
2022/08/13 04:40:56;;;;;;;9.27;5.03;;;;;;;14.87;100.00;100576.25;4942353;28;20031;-67
2022/08/13 04:43:21;;;;;;;7.60;5.13;;;;;;;14.79;100.00;100569.66;4954057;28;20370;-68
2022/08/13 04:45:47;;;;;;;7.22;5.07;;;;;;;14.74;100.00;100573.53;4954478;28;20112;-67
2022/08/13 04:48:15;;;;;;;5.60;4.38;;;;;;;14.61;100.00;100562.88;4953889;28;20031;-67
2022/08/13 04:50:43;;;;;;;7.30;4.82;;;;;;;14.59;100.00;100562.16;4944581;28;20054;-67
2022/08/13 04:53:25;;;;;;;6.90;4.80;;;;;;;14.67;100.00;100566.94;4937771;28;20036;-68
2022/08/13 04:55:51;;;;;;;11.60;5.28;;;;;;;14.69;100.00;100570.34;4953649;28;20027;-68
2022/08/13 04:58:17;;;;;;;8.82;4.30;;;;;;;14.71;100.00;100573.72;4933643;28;20028;-67
2022/08/13 05:00:45;;;;;;;7.80;5.55;;;;;;;14.67;100.00;100556.34;4952051;28;20050;-68
2022/08/13 05:03:21;;;;;;;8.43;5.35;;;;;;;14.76;100.00;100569.00;4961079;28;20057;-68
2022/08/13 05:05:48;;;;;;;8.45;4.70;;;;;;;14.80;100.00;100567.84;4943764;29;20116;-67
2022/08/13 05:08:17;;;;;;;8.77;4.65;;;;;;;14.78;100.00;100559.16;4953946;28;20042;-67
2022/08/13 05:10:47;;;;;;;8.00;5.35;;;;;;;14.70;100.00;100551.72;4939353;28;20036;-67
2022/08/13 05:13:21;;;;;;;6.80;4.80;;;;;;;14.93;100.00;100581.97;4941193;28;20063;-67
2022/08/13 05:15:47;;;;;;;;;;;;;;;14.97;100.00;100586.09;4948701;29;20023;-67
2022/08/13 05:18:12;;;;;;;6.20;4.35;;;;;;;15.03;100.00;100579.59;4953768;28;20364;-67
2022/08/13 05:20:39;;;;;;;9.68;4.10;;;;;;;15.12;100.00;100585.13;4953646;28;20397;-67
2022/08/13 05:23:08;;;;;;;8.35;4.63;;;;;;;15.17;100.00;100588.31;4949738;28;20446;-67
2022/08/13 05:25:34;;;;;;;9.85;4.47;;;;;;;15.26;100.00;100587.69;4955418;28;20081;-68
2022/08/13 05:27:59;;;;;;;6.22;4.22;;;;;;;15.32;100.00;100578.50;4953963;28;20032;-67
2022/08/13 05:30:27;;;;;;;12.45;4.88;;;;;;;15.40;100.00;100580.63;4967448;28;20031;-68
2022/08/13 05:32:55;;;;;;;8.20;5.25;;;;;;;15.51;100.00;100586.09;4952693;28;20035;-68
2022/08/13 05:35:20;;;;;;;5.65;3.92;;;;;;;15.56;100.00;100589.28;4947202;29;20446;-67
2022/08/13 05:37:46;;;;;;;6.38;4.28;;;;;;;15.52;100.00;100571.88;4936317;28;20032;-68
2022/08/13 05:40:12;;;;;;;10.93;4.70;;;;;;;15.69;100.00;100593.63;4950758;28;20023;-68
2022/08/13 05:42:39;;;;;;;4.85;3.85;;;;;;;15.75;100.00;100589.72;4947309;28;20525;-67
2022/08/13 05:45:07;;;;;;;6.97;4.47;;;;;;;15.81;100.00;100589.31;4956603;28;20399;-67
2022/08/13 05:47:32;;;;;;;5.88;3.97;;;;;;;15.85;100.00;100580.16;4968475;28;20559;-68
2022/08/13 05:49:58;;;;;;;5.97;4.43;;;;;;;15.92;100.00;100580.63;4946340;29;20039;-68
2022/08/13 05:52:25;;;;;;;8.02;4.82;;;;;;;16.02;100.00;100581.69;4953469;28;20417;-68
2022/08/13 05:54:51;;;;;;;7.00;4.95;;;;;;;16.13;100.00;100590.56;4944840;28;20507;-68
2022/08/13 05:57:16;;;;;;;6.72;4.32;;;;;;;16.24;100.00;100582.72;4952718;28;20036;-68
2022/08/13 06:05:09;;;;;;;7.00;4.20;;;;;;;16.55;100.00;100589.38;4953652;29;20097;-68
2022/08/13 06:07:34;;;;;;;6.35;3.72;;;;;;;16.61;100.00;100586.25;4952033;28;20421;-68
2022/08/13 06:10:00;;;;;;;6.55;4.03;;;;;;;16.74;100.00;100575.59;4967689;28;20039;-68
2022/08/13 06:12:25;;;;;;;9.25;4.07;;;;;;;16.84;100.00;100587.25;4952892;28;20027;-68
2022/08/13 06:14:52;;;;;;;6.03;4.90;;;;;;;16.89;100.00;100574.50;4952917;29;20035;-68
2022/08/13 06:17:18;;;;;;;6.63;3.75;;;;;;;17.06;100.00;100582.06;4952089;28;20397;-68
2022/08/13 06:19:44;;;;;;;16.40;4.10;;;;;;;17.04;100.00;100565.38;4945363;28;20134;-68
2022/08/13 06:22:11;;;;;;;6.60;3.70;;;;;;;17.29;100.00;100583.84;4950100;28;20118;-68
2022/08/13 06:24:37;;;;;;;5.25;3.60;;;;;;;17.41;100.00;100578.56;4947486;28;20027;-68
2022/08/13 06:27:07;;;;;;;4.25;2.85;;;;;;;17.53;100.00;100581.16;4944832;29;20039;-68
2022/08/13 06:29:40;;;;;;;6.78;3.60;;;;;;;17.71;100.00;100584.25;4948389;28;20031;-68
2022/08/13 06:32:06;;;;;;;7.33;3.87;;;;;;;17.83;100.00;100580.66;4944933;28;20459;-68
2022/08/13 06:34:34;;;;;;;6.47;3.25;;;;;;;17.98;100.00;100591.91;4907868;28;20821;-67
2022/08/13 06:37:03;;;;;;;4.47;3.50;;;;;;;18.09;100.00;100576.78;4909885;28;21557;-67
2022/08/13 06:39:30;;;;;;;9.75;3.97;;;;;;;18.26;100.00;100586.09;4893414;28;20412;-67
2022/08/13 06:42:02;;;;;;;9.70;3.25;;;;;;;18.39;100.00;100587.69;4915635;28;20042;-67
2022/08/13 06:44:31;;;;;;;4.40;2.67;;;;;;;18.55;100.00;100582.03;5002855;28;20047;-68
2022/08/13 06:46:58;;;;;;;5.57;2.88;;;;;;;18.69;100.00;100587.06;4952874;28;20374;-67
2022/08/13 06:49:24;;;;;;;4.43;2.70;;;;;;;18.83;100.00;100591.28;4967382;28;20034;-67
2022/08/13 06:51:49;;;;;;;4.55;2.42;;;;;;;18.98;100.00;100599.84;4958697;28;20063;-67
2022/08/13 06:54:15;;;;;;;6.22;2.97;;;;;;;19.10;100.00;100598.81;4952149;28;20035;-68
2022/08/13 06:56:40;;;;;;;8.85;2.60;;;;;;;19.19;100.00;100593.59;4952209;29;20445;-68
2022/08/13 06:59:06;;;;;;;3.58;2.10;;;;;;;19.35;100.00;100596.69;4952844;28;20035;-67
2022/08/13 07:01:32;;;;;;;7.53;2.90;;;;;;;19.48;100.00;100599.19;4956296;28;20496;-68
2022/08/13 07:03:57;;;;;;;6.63;2.40;;;;;;;19.60;100.00;100595.47;4935443;29;20110;-68
2022/08/13 07:06:27;;;;;;;8.75;2.53;;;;;;;19.72;100.00;100601.59;4951746;28;20031;-67
2022/08/13 07:08:57;;;;;;;6.65;2.45;;;;;;;19.83;100.00;100598.88;4934034;28;20405;-67
2022/08/13 07:11:28;;;;;;;3.20;2.20;;;;;;;19.84;100.00;100581.88;4933914;29;20464;-67
2022/08/13 07:13:57;;;;;;;9.27;3.10;;;;;;;20.03;100.00;100595.34;4943202;28;20031;-67
2022/08/13 07:16:25;;;;;;;4.28;2.30;;;;;;;20.24;100.00;100600.66;4944975;28;20509;-67
2022/08/13 07:18:51;;;;;;;5.47;2.72;;;;;;;20.35;100.00;100596.06;4934508;28;20042;-67
2022/08/13 07:21:20;;;;;;;3.83;2.13;;;;;;;20.49;100.00;100594.00;4936145;28;20086;-67
2022/08/13 07:23:47;;;;;;;5.88;2.53;;;;;;;20.54;100.00;100597.97;4932046;29;20035;-67
2022/08/13 07:26:14;;;;;;;5.05;2.88;;;;;;;20.60;99.95;100586.75;4952228;28;20105;-67
2022/08/13 07:28:40;;;;;;;12.93;3.40;;;;;;;20.81;99.96;100595.53;4939999;28;20028;-67
2022/08/13 07:31:07;;;;;;;7.03;3.60;;;;;;;20.97;98.88;100599.47;4935295;29;20393;-67
2022/08/13 07:33:36;;;;;;;5.90;2.75;;;;;;;21.10;98.30;100598.25;4951280;28;20078;-67
2022/08/13 07:36:07;;;;;;;5.63;3.00;;;;;;;21.25;97.86;100596.03;4951006;29;20085;-67
2022/08/13 07:38:33;;;;;;;5.78;2.83;;;;;;;21.34;96.33;100596.03;4952016;29;20043;-68
2022/08/13 07:41:01;;;;;;;11.90;3.78;;;;;;;21.30;94.80;100578.56;4951570;28;20023;-67
2022/08/13 07:43:28;;;;;;;4.47;2.40;;;;;;;21.48;93.09;100604.59;4952039;28;20032;-67
2022/08/13 07:46:07;;;;;;;4.03;2.22;;;;;;;21.53;92.48;100605.88;4959019;28;20107;-68
2022/08/13 07:48:34;;;;;;;4.70;2.42;;;;;;;21.56;91.10;100599.41;4940928;28;20027;-68
2022/08/13 07:51:00;;;;;;;4.57;2.63;;;;;;;21.66;89.87;100602.91;4947920;28;20448;-68
2022/08/13 07:53:26;;;;;;;6.38;2.33;;;;;;;21.73;89.02;100601.34;4940087;29;20066;-67
2022/08/13 07:55:52;;;;;;;6.00;2.42;;;;;;;21.88;87.00;100610.63;4946056;28;20109;-67
2022/08/13 07:58:18;;;;;;;7.22;2.10;;;;;;;22.01;86.58;100611.16;4951228;28;20469;-67
2022/08/13 08:00:45;;;;;;;5.28;2.25;;;;;;;22.06;85.44;100598.22;4950237;28;20500;-68
2022/08/13 08:03:12;;;;;;;4.22;1.98;;;;;;;22.13;84.64;100599.31;4957089;28;20074;-67
2022/08/13 08:05:43;;;;;;;10.65;2.20;;;;;;;22.08;83.09;100577.47;5014451;28;20073;-67
2022/08/13 08:08:10;;;;;;;5.63;2.30;;;;;;;22.31;82.77;100600.22;4951754;28;20393;-68
2022/08/13 08:10:42;;;;;;;7.43;2.28;;;;;;;22.39;82.22;100600.34;4951195;28;20023;-67
2022/08/13 08:13:09;;;;;;;3.40;1.90;;;;;;;22.54;81.75;100602.53;4944353;28;20047;-68
2022/08/13 08:15:38;;;;;;;2.83;1.80;;;;;;;22.47;80.16;100580.88;4939409;28;20549;-67
2022/08/13 08:18:04;;;;;;;2.90;1.70;;;;;;;22.72;79.95;100606.13;4943065;28;20066;-66
2022/08/13 08:20:30;;;;;;;8.18;2.40;;;;;;;22.84;79.29;100607.63;4945860;28;20055;-66
2022/08/13 08:22:56;;;;;;;5.85;2.05;;;;;;;22.93;79.08;100598.66;4933488;28;20027;-67
2022/08/13 08:25:22;;;;;;;3.03;1.58;;;;;;;23.05;78.52;100596.63;5008982;28;20035;-68
2022/08/13 08:27:48;;;;;;;5.53;2.03;;;;;;;23.17;77.99;100606.97;4950506;29;20023;-67
2022/08/13 08:30:18;;;;;;;7.22;2.33;;;;;;;23.28;77.05;100609.44;4928883;28;20093;-67
2022/08/13 08:32:52;;;;;;;5.88;2.10;;;;;;;23.38;76.71;100606.66;4923102;28;20069;-67
2022/08/13 08:35:18;;;;;;;;;;;;;;;23.45;75.25;100601.56;4950319;28;20034;-67
2022/08/13 08:43:13;;;;;;;3.78;1.70;;;;;;;23.86;73.64;100603.56;4999425;28;20042;-67
2022/08/13 08:45:40;;;;;;;3.22;1.73;;;;;;;23.97;72.83;100611.34;5008012;28;20035;-67
2022/08/13 08:48:06;;;;;;;7.50;2.05;;;;;;;24.00;72.32;100600.28;4937498;28;20473;-68
2022/08/13 08:50:33;;;;;;;3.95;1.30;;;;;;;24.10;72.09;100603.72;4998104;28;20042;-67
2022/08/13 08:55:44;;;;;;;5.80;2.22;;;;;;;24.37;68.83;100605.41;4929594;28;20464;-68
2022/08/13 08:58:11;;;;;;;2.85;1.40;;;;;;;24.47;69.14;100603.44;4928500;28;20122;-67
2022/08/13 09:00:39;;;;;;;8.55;1.88;;;;;;;24.57;69.50;100611.38;4932481;28;20390;-68
2022/08/13 09:03:10;;;;;;;5.63;1.65;;;;;;;24.64;69.35;100604.38;4931637;28;20038;-68
2022/08/13 09:05:35;;;;;;;3.97;1.70;;;;;;;24.66;70.36;100584.38;4936343;29;20508;-67
2022/08/13 09:08:03;;;;;;;4.97;1.80;;;;;;;24.88;68.75;100602.63;4940548;28;20032;-66
2022/08/13 09:10:33;;;;;;;5.85;2.28;;;;;;;24.98;67.98;100593.56;4934142;28;20039;-67
2022/08/13 09:13:02;;;;;;;12.77;2.40;;;;;;;25.05;68.25;100592.72;5004710;28;20117;-67
2022/08/13 09:15:28;;;;;;;3.85;1.95;;;;;;;25.24;66.52;100591.59;5004518;28;20032;-67
2022/08/13 09:17:53;;;;;;;5.97;1.88;;;;;;;25.39;66.90;100598.84;4933267;28;20169;-66
2022/08/13 09:20:21;;;;;;;3.53;1.60;;;;;;;25.51;67.62;100588.63;4938743;28;20029;-67
2022/08/13 09:22:55;;;;;;;5.45;1.92;;;;;;;25.58;65.96;100588.78;4937191;28;20024;-67
2022/08/13 09:25:24;;;;;;;5.55;1.83;;;;;;;25.61;65.60;100591.13;4920154;28;20393;-67
2022/08/13 09:27:51;;;;;;;5.13;1.92;;;;;;;25.70;64.04;100590.97;4937147;28;20040;-66
2022/08/13 09:30:16;;;;;;;8.07;1.80;;;;;;;25.69;64.89;100569.56;4933591;28;20110;-67
2022/08/13 09:32:41;;;;;;;2.55;1.50;;;;;;;25.85;64.92;100589.28;4933756;28;20107;-66
2022/08/13 09:35:07;;;;;;;4.22;1.67;;;;;;;25.99;64.34;100587.72;4938835;28;20039;-67
2022/08/13 09:37:33;;;;;;;4.85;1.77;;;;;;;26.07;61.69;100585.00;4918602;28;20134;-67
2022/08/13 09:40:07;;;;;;;6.20;1.65;;;;;;;26.17;62.58;100574.06;4917790;28;20085;-67
2022/08/13 09:42:38;;;;;;;7.72;1.83;;;;;;;26.31;60.90;100576.03;4933658;28;20027;-67
2022/08/13 09:45:06;;;;;;;2.97;1.63;;;;;;;26.30;61.51;100564.41;4919352;28;20035;-67
2022/08/13 09:47:31;;;;;;;3.00;1.30;;;;;;;26.45;61.11;100579.88;4932963;28;20031;-67
2022/08/13 09:49:56;;;;;;;3.58;1.35;;;;;;;26.57;62.13;100567.66;4938726;28;20030;-67
2022/08/13 09:52:22;;;;;;;4.50;1.50;;;;;;;26.67;59.74;100565.59;4952706;29;20027;-67
2022/08/13 09:54:48;;;;;;;3.35;1.67;;;;;;;26.84;57.52;100564.53;4953191;28;20253;-67
2022/08/13 09:57:14;;;;;;;2.35;0.98;;;;;;;26.87;57.66;100556.06;4939095;28;20039;-67
2022/08/13 09:59:39;;;;;;;4.15;1.55;;;;;;;26.91;58.72;100552.00;5001053;28;20044;-67
2022/08/13 10:02:09;;;;;;;4.15;1.75;;;;;;;27.02;56.91;100566.94;4928521;28;20458;-67
2022/08/13 10:04:38;;;;;;;5.43;1.52;;;;;;;27.13;57.58;100562.00;4934131;28;20115;-67
2022/08/13 10:07:05;;;;;;;4.68;1.55;;;;;;;27.16;57.02;100550.84;4937786;28;20042;-67
2022/08/13 10:09:33;;;;;;;2.88;1.40;;;;;;;27.26;56.63;100556.84;4937973;28;20077;-67
2022/08/13 10:12:06;;;;;;;5.85;1.23;;;;;;;27.31;56.13;100551.72;4946038;28;20040;-67
2022/08/13 10:14:33;;;;;;;3.17;0.93;;;;;;;27.38;55.02;100549.97;4950044;28;20031;-67
2022/08/13 10:16:59;;;;;;;3.63;1.38;;;;;;;27.48;55.54;100538.13;4943708;28;20382;-67
2022/08/13 10:19:25;;;;;;;2.92;1.00;;;;;;;27.60;54.70;100548.31;4933703;28;20045;-66
2022/08/13 10:21:51;;;;;;;6.00;1.52;;;;;;;27.70;52.66;100550.75;4939683;28;20034;-67
2022/08/13 10:24:16;;;;;;;6.07;1.40;;;;;;;27.67;52.71;100532.19;4936300;28;20034;-67
2022/08/13 10:26:41;;;;;;;2.83;1.20;;;;;;;27.91;52.14;100545.47;4935150;28;20032;-66
2022/08/13 10:29:08;;;;;;;3.03;1.10;;;;;;;28.05;51.79;100539.22;4935661;28;20032;-66
2022/08/13 10:31:34;;;;;;;2.72;1.30;;;;;;;28.15;50.67;100539.81;4938697;28;20057;-67
2022/08/13 10:34:00;;;;;;;3.53;1.65;;;;;;;28.10;50.60;100517.91;4949476;28;20397;-67
2022/08/13 10:36:27;;;;;;;2.60;1.48;;;;;;;28.26;50.49;100530.38;5006558;28;20101;-67
2022/08/13 10:38:52;;;;;;;3.40;1.13;;;;;;;28.35;50.78;100524.69;4929025;28;20035;-68
2022/08/13 10:41:18;;;;;;;1.63;0.80;;;;;;;28.47;50.53;100522.34;4939250;28;20437;-68
2022/08/13 10:43:43;;;;;;;6.28;0.95;;;;;;;28.56;49.98;100525.78;4951346;29;20031;-67
2022/08/13 10:46:15;;;;;;;2.08;0.98;;;;;;;28.66;49.32;100531.72;4954615;28;20148;-68
2022/08/13 10:48:40;;;;;;;2.20;1.20;;;;;;;28.67;48.08;100506.38;4949578;28;20585;-68
2022/08/13 10:51:06;;;;;;;2.40;0.98;;;;;;;28.79;46.87;100519.22;4951272;28;20106;-68
2022/08/13 10:56:17;;;;;;;4.35;0.85;;;;;;;28.87;47.92;100505.56;4947411;28;20077;-68
2022/08/13 10:58:43;;;;;;;2.72;1.27;;;;;;;28.75;47.49;100485.47;4938611;28;20399;-67
2022/08/13 11:01:10;;;;;;;3.55;1.13;;;;;;;29.06;46.96;100514.91;4937810;28;20047;-67
2022/08/13 11:03:36;;;;;;;7.13;1.35;;;;;;;29.20;47.04;100516.69;4942943;28;20028;-67
2022/08/13 11:06:04;;;;;;;1.95;0.93;;;;;;;29.26;46.05;100520.53;4927238;28;20115;-64
2022/08/13 11:08:36;;;;;;;4.88;0.90;;;;;;;29.29;45.51;100515.56;4948801;28;20110;-67
2022/08/13 11:11:02;;;;;;;1.48;0.63;;;;;;;29.32;45.84;100520.59;4945315;29;20036;-68
2022/08/13 11:13:28;;;;;;;1.85;0.70;;;;;;;29.40;46.01;100514.22;4943342;28;20039;-67
2022/08/13 11:15:53;;;;;;;2.33;0.80;;;;;;;29.52;45.78;100512.63;4959067;28;20058;-67
2022/08/13 11:18:19;;;;;;;3.53;1.17;;;;;;;29.64;46.34;100512.94;4934107;28;20038;-68
2022/08/13 11:21:02;;;;;;;5.93;1.02;;;;;;;29.61;45.40;100502.47;4916644;28;20397;-67
2022/08/13 11:23:30;;;;;;;5.15;0.82;;;;;;;29.75;45.05;100486.09;4929868;28;20063;-68
2022/08/13 11:25:56;;;;;;;4.90;0.93;;;;;;;29.96;45.34;100489.81;4952559;28;20041;-68
2022/08/13 11:28:22;;;;;;;2.15;0.90;;;;;;;30.22;44.23;100501.63;4941368;28;20047;-68
2022/08/13 11:30:48;;;;;;;1.67;0.90;;;;;;;30.21;44.25;100475.56;4946254;28;20027;-68
2022/08/13 11:33:14;;;;;;;4.53;1.25;;;;;;;30.66;44.87;100503.06;4950968;28;20118;-68
2022/08/13 11:35:41;;;;;;;2.13;1.02;;;;;;;30.66;44.53;100456.94;4951318;28;20030;-68
2022/08/13 11:38:13;;;;;;;4.00;1.02;;;;;;;31.22;43.88;100490.03;4956049;28;20401;-68
2022/08/13 11:40:39;;;;;;;5.30;0.90;;;;;;;31.47;44.21;100479.38;4934297;28;20031;-68
2022/08/13 11:43:05;;;;;;;3.10;0.65;;;;;;;31.40;44.15;100422.31;4948597;28;20097;-68
2022/08/13 11:45:30;;;;;;;3.00;1.15;;;;;;;32.30;43.08;100487.59;4951536;28;20035;-68
2022/08/13 11:47:56;;;;;;;4.32;1.10;;;;;;;33.38;42.57;100485.69;4950859;28;20499;-68